createdAt,value
2023-05-15T00:01:28.573Z,25.51
2023-05-15T00:03:28.608Z,25.47
2023-05-15T00:05:28.475Z,25.46
2023-05-15T00:07:28.545Z,25.51
2023-05-15T00:09:28.507Z,25.45
2023-05-15T00:11:28.544Z,25.52
2023-05-15T00:13:28.602Z,25.47
2023-05-15T00:15:28.575Z,25.42
2023-05-15T00:17:28.580Z,25.50
2023-05-15T00:19:28.488Z,25.52
2023-05-15T00:21:28.604Z,25.52
2023-05-15T00:23:28.567Z,25.49
2023-05-15T00:25:28.581Z,25.52
2023-05-15T00:27:28.606Z,25.51
2023-05-15T00:29:28.550Z,25.52
2023-05-15T00:31:28.572Z,25.47
2023-05-15T00:33:28.519Z,25.50
2023-05-15T00:35:28.654Z,25.55
2023-05-15T00:37:28.543Z,25.48
2023-05-15T00:39:28.538Z,25.51
2023-05-15T00:41:28.634Z,25.54
2023-05-15T00:43:28.585Z,25.50
2023-05-15T00:45:28.585Z,25.58
2023-05-15T00:47:28.684Z,25.51
2023-05-15T00:49:28.601Z,25.51
2023-05-15T00:51:28.535Z,25.49
2023-05-15T00:53:28.612Z,25.52
2023-05-15T00:55:28.575Z,25.51
2023-05-15T00:57:28.583Z,25.58
2023-05-15T00:59:28.625Z,25.51
2023-05-15T01:01:28.643Z,25.46
2023-05-15T01:03:28.691Z,25.52
2023-05-15T01:05:28.615Z,25.51
2023-05-15T01:07:28.547Z,25.52
2023-05-15T01:09:28.455Z,25.54
2023-05-15T01:11:28.501Z,25.48
2023-05-15T01:13:28.574Z,25.52
2023-05-15T01:15:28.620Z,25.42
2023-05-15T01:17:28.644Z,25.51
2023-05-15T01:19:28.688Z,25.52
2023-05-15T01:21:28.670Z,25.51
2023-05-15T01:23:28.646Z,25.52
2023-05-15T01:25:28.670Z,25.49
2023-05-15T01:27:28.506Z,25.52
2023-05-15T01:29:28.605Z,25.52
2023-05-15T01:31:28.685Z,25.52
2023-05-15T01:33:28.614Z,25.52
2023-05-15T01:35:28.617Z,25.49
2023-05-15T01:37:28.665Z,25.55
2023-05-15T01:39:28.624Z,25.49
2023-05-15T01:41:28.574Z,25.56
2023-05-15T01:43:28.674Z,25.47
2023-05-15T01:45:28.530Z,25.50
2023-05-15T01:47:28.594Z,25.52
2023-05-15T01:49:28.677Z,25.52
2023-05-15T01:51:28.651Z,25.48
2023-05-15T01:53:28.582Z,25.51
2023-05-15T01:55:28.694Z,25.50
2023-05-15T01:57:28.639Z,25.49
2023-05-15T01:59:28.640Z,25.54
2023-05-15T02:01:28.507Z,24.08
2023-05-15T02:03:28.636Z,23.82
2023-05-15T02:05:28.665Z,23.77
2023-05-15T02:07:28.665Z,24.02
2023-05-15T02:09:28.671Z,24.10
2023-05-15T02:11:28.687Z,24.05
2023-05-15T02:13:28.700Z,24.04
2023-05-15T02:15:28.585Z,24.10
2023-05-15T02:17:28.678Z,24.06
2023-05-15T02:19:28.638Z,24.08
2023-05-15T02:21:28.611Z,24.01
2023-05-15T02:23:28.627Z,24.05
2023-05-15T02:25:28.698Z,24.10
2023-05-15T02:27:28.724Z,23.53
2023-05-15T02:29:28.719Z,23.39
2023-05-15T02:31:28.869Z,23.33
2023-05-15T02:33:28.671Z,23.38
2023-05-15T02:35:28.741Z,23.29
2023-05-15T02:37:28.724Z,23.48
2023-05-15T02:39:28.716Z,23.70
2023-05-15T02:41:28.727Z,23.75
2023-05-15T02:43:28.679Z,23.73
2023-05-15T02:45:28.752Z,23.81
2023-05-15T02:47:28.736Z,23.81
2023-05-15T02:49:28.693Z,23.49
2023-05-15T02:51:28.745Z,23.36
2023-05-15T02:53:28.699Z,23.45
2023-05-15T02:55:28.602Z,23.40
2023-05-15T02:57:28.680Z,23.37
2023-05-15T02:59:28.699Z,23.50
2023-05-15T03:01:28.709Z,23.62
2023-05-15T03:03:28.705Z,23.62
2023-05-15T03:05:28.939Z,23.68
2023-05-15T03:07:28.737Z,23.65
2023-05-15T03:09:28.738Z,23.09
2023-05-15T03:11:28.762Z,23.11
2023-05-15T03:13:28.761Z,22.97
2023-05-15T03:15:28.679Z,23.10
2023-05-15T03:17:28.822Z,22.97
2023-05-15T03:19:28.765Z,23.30
2023-05-15T03:21:28.753Z,23.37
2023-05-15T03:23:28.793Z,23.50
2023-05-15T03:25:28.676Z,23.39
2023-05-15T03:27:28.743Z,23.49
2023-05-15T03:29:28.754Z,23.43
2023-05-15T03:31:28.840Z,23.34
2023-05-15T03:33:28.726Z,23.33
2023-05-15T03:35:28.587Z,23.33
2023-05-15T03:37:28.804Z,23.30
2023-05-15T03:39:28.761Z,23.37
2023-05-15T03:41:28.713Z,23.16
2023-05-15T03:43:28.774Z,23.06
2023-05-15T03:45:29.066Z,23.11
2023-05-15T03:47:28.825Z,23.03
2023-05-15T03:49:28.680Z,22.98
2023-05-15T03:51:28.748Z,22.78
2023-05-15T03:53:28.770Z,22.76
2023-05-15T03:55:28.694Z,22.79
2023-05-15T03:57:28.677Z,22.84
2023-05-15T03:59:28.769Z,22.80
2023-05-15T04:01:28.826Z,22.96
2023-05-15T04:03:28.690Z,22.97
2023-05-15T04:05:28.962Z,23.04
2023-05-15T04:07:28.769Z,22.97
2023-05-15T04:09:28.797Z,22.96
2023-05-15T04:11:28.645Z,22.97
2023-05-15T04:13:28.907Z,22.97
2023-05-15T04:15:28.876Z,23.06
2023-05-15T04:17:28.914Z,22.99
2023-05-15T04:19:28.796Z,22.96
2023-05-15T04:21:28.828Z,22.96
2023-05-15T04:23:28.832Z,22.97
2023-05-15T04:25:28.779Z,22.96
2023-05-15T04:27:28.791Z,22.92
2023-05-15T04:29:28.848Z,23.01
2023-05-15T04:31:28.828Z,22.84
2023-05-15T04:33:28.828Z,22.44
2023-05-15T04:35:28.841Z,22.62
2023-05-15T04:37:28.844Z,22.64
2023-05-15T04:39:28.947Z,22.67
2023-05-15T04:41:28.824Z,22.59
2023-05-15T04:43:28.805Z,22.99
2023-05-15T04:45:28.845Z,23.09
2023-05-15T04:47:28.959Z,23.15
2023-05-15T04:49:28.866Z,23.11
2023-05-15T04:51:28.878Z,23.11
2023-05-15T04:53:28.733Z,23.09
2023-05-15T04:55:28.859Z,23.15
2023-05-15T04:57:28.801Z,23.12
2023-05-15T04:59:28.820Z,23.12
2023-05-15T05:01:28.905Z,23.15
2023-05-15T05:03:28.829Z,23.08
2023-05-15T05:05:28.893Z,23.11
2023-05-15T05:07:28.763Z,23.06
2023-05-15T05:09:28.760Z,23.08
2023-05-15T05:11:28.897Z,23.05
2023-05-15T05:13:28.820Z,22.64
2023-05-15T05:15:28.910Z,22.64
2023-05-15T05:17:28.918Z,22.66
2023-05-15T05:19:28.892Z,22.54
2023-05-15T05:21:28.831Z,22.58
2023-05-15T05:23:28.948Z,22.68
2023-05-15T05:25:28.782Z,22.83
2023-05-15T05:27:28.842Z,22.87
2023-05-15T05:29:28.870Z,23.08
2023-05-15T05:31:28.938Z,23.17
2023-05-15T05:33:28.868Z,23.15
2023-05-15T05:35:28.939Z,23.15
2023-05-15T05:37:28.982Z,23.23
2023-05-15T05:39:28.910Z,23.23
2023-05-15T05:41:28.844Z,23.23
2023-05-15T05:43:28.884Z,23.19
2023-05-15T05:45:28.919Z,23.24
2023-05-15T05:47:29.011Z,23.00
2023-05-15T05:49:28.903Z,23.33
2023-05-15T05:51:28.730Z,23.38
2023-05-15T05:53:28.851Z,23.31
2023-05-15T05:55:28.935Z,22.72
2023-05-15T05:57:28.900Z,22.69
2023-05-15T05:59:29.026Z,22.68
2023-05-15T06:01:28.978Z,22.66
2023-05-15T06:03:28.995Z,22.68
2023-05-15T06:05:28.833Z,23.20
2023-05-15T06:07:28.848Z,23.29
2023-05-15T06:09:28.809Z,23.34
2023-05-15T06:11:28.897Z,23.13
2023-05-15T06:13:28.905Z,23.03
2023-05-15T06:15:28.943Z,22.99
2023-05-15T06:17:28.991Z,23.06
2023-05-15T06:19:28.951Z,23.02
2023-05-15T06:21:28.972Z,23.38
2023-05-15T06:23:28.926Z,23.53
2023-05-15T06:25:28.821Z,23.76
2023-05-15T06:27:28.958Z,23.86
2023-05-15T06:29:28.973Z,23.94
2023-05-15T06:31:29.000Z,24.05
2023-05-15T06:33:28.931Z,24.11
2023-05-15T06:35:28.892Z,23.93
2023-05-15T06:37:28.917Z,23.42
2023-05-15T06:39:28.904Z,23.17
2023-05-15T06:41:28.862Z,23.15
2023-05-15T06:43:29.003Z,23.03
2023-05-15T06:45:29.208Z,23.02
2023-05-15T06:47:29.000Z,23.68
2023-05-15T06:49:28.973Z,23.89
2023-05-15T06:51:29.025Z,24.10
2023-05-15T06:53:28.966Z,24.27
2023-05-15T06:55:28.923Z,24.30
2023-05-15T06:57:29.043Z,24.51
2023-05-15T06:59:28.983Z,24.61
2023-05-15T07:01:28.971Z,24.51
2023-05-15T07:03:29.008Z,24.29
2023-05-15T07:05:28.985Z,24.09
2023-05-15T07:07:29.012Z,24.37
2023-05-15T07:09:29.004Z,24.32
2023-05-15T07:11:29.029Z,24.53
2023-05-15T07:13:28.983Z,24.48
2023-05-15T07:15:28.975Z,24.73
2023-05-15T07:17:29.084Z,24.33
2023-05-15T07:19:29.122Z,24.12
2023-05-15T07:21:29.068Z,24.05
2023-05-15T07:23:29.029Z,24.12
2023-05-15T07:25:29.312Z,23.99
2023-05-15T07:27:28.849Z,24.47
2023-05-15T07:29:28.995Z,24.82
2023-05-15T07:31:29.084Z,24.96
2023-05-15T07:33:29.069Z,24.96
2023-05-15T07:35:28.953Z,24.99
2023-05-15T07:37:29.028Z,24.97
2023-05-15T07:39:29.097Z,24.87
2023-05-15T07:41:29.003Z,25.04
2023-05-15T07:43:29.051Z,24.99
2023-05-15T07:45:29.066Z,24.52
2023-05-15T07:47:29.026Z,24.83
2023-05-15T07:49:28.956Z,25.23
2023-05-15T07:51:29.051Z,25.37
2023-05-15T07:53:29.005Z,25.35
2023-05-15T07:55:29.084Z,25.23
2023-05-15T07:57:29.056Z,25.20
2023-05-15T07:59:29.140Z,24.66
2023-05-15T08:01:30.651Z,24.46
2023-05-15T08:03:29.161Z,24.36
2023-05-15T08:05:29.099Z,24.39
2023-05-15T08:07:29.093Z,24.64
2023-05-15T08:09:29.068Z,25.23
2023-05-15T08:11:29.022Z,25.23
2023-05-15T08:13:29.103Z,25.53
2023-05-15T08:15:29.012Z,25.80
2023-05-15T08:17:29.116Z,25.88
2023-05-15T08:19:29.140Z,26.00
2023-05-15T08:21:28.981Z,26.14
2023-05-15T08:23:28.980Z,26.37
2023-05-15T08:25:29.091Z,26.28
2023-05-15T08:27:29.110Z,26.44
2023-05-15T08:29:28.947Z,25.08
2023-05-15T08:31:29.139Z,26.22
2023-05-15T08:33:29.023Z,26.17
2023-05-15T08:35:29.088Z,26.14
2023-05-15T08:37:29.149Z,24.97
2023-05-15T08:39:29.093Z,26.42
2023-05-15T08:41:40.022Z,25.57
2023-05-15T08:43:28.991Z,25.75
2023-05-15T08:45:29.049Z,25.95
2023-05-15T08:47:29.101Z,26.11
2023-05-15T08:49:29.413Z,25.53
2023-05-15T08:51:29.079Z,25.21
2023-05-15T08:53:29.082Z,26.57
2023-05-15T08:55:29.199Z,26.46
2023-05-15T08:57:29.054Z,25.08
2023-05-15T08:59:29.146Z,25.21
2023-05-15T09:01:29.052Z,24.93
2023-05-15T09:03:29.322Z,24.93
2023-05-15T09:05:29.199Z,24.96
2023-05-15T09:07:29.058Z,24.90
2023-05-15T09:09:29.137Z,25.65
2023-05-15T09:11:29.120Z,26.71
2023-05-15T09:13:29.236Z,24.98
2023-05-15T09:15:29.162Z,25.21
2023-05-15T09:17:29.158Z,24.95
2023-05-15T09:19:29.181Z,24.95
2023-05-15T09:21:29.167Z,24.95
2023-05-15T09:23:29.145Z,26.70
2023-05-15T09:25:29.122Z,26.29
2023-05-15T09:27:29.008Z,26.79
2023-05-15T09:29:29.109Z,25.30
2023-05-15T09:31:29.255Z,26.63
2023-05-15T09:33:29.067Z,25.09
2023-05-15T09:35:29.399Z,24.95
2023-05-15T09:37:29.194Z,24.92
2023-05-15T09:39:29.164Z,25.05
2023-05-15T09:41:29.198Z,24.95
2023-05-15T09:43:29.176Z,26.75
2023-05-15T09:45:29.196Z,26.76
2023-05-15T09:47:29.290Z,24.86
2023-05-15T09:49:29.400Z,25.73
2023-05-15T09:51:29.211Z,24.95
2023-05-15T09:53:29.165Z,24.93
2023-05-15T09:55:29.163Z,24.95
2023-05-15T09:57:29.070Z,24.67
2023-05-15T09:59:29.068Z,26.84
2023-05-15T10:01:29.193Z,24.98
2023-05-15T10:03:29.252Z,26.55
2023-05-15T10:05:42.510Z,26.69
2023-05-15T10:07:29.151Z,26.69
2023-05-15T10:09:29.079Z,26.80
2023-05-15T10:11:29.113Z,26.79
2023-05-15T10:13:29.246Z,26.77
2023-05-15T10:15:29.155Z,25.15
2023-05-15T10:17:29.284Z,25.08
2023-05-15T10:19:29.113Z,24.97
2023-05-15T10:21:29.165Z,26.27
2023-05-15T10:23:29.117Z,24.98
2023-05-15T10:25:29.157Z,24.95
2023-05-15T10:27:29.227Z,24.97
2023-05-15T10:29:29.296Z,25.77
2023-05-15T10:31:29.160Z,25.63
2023-05-15T10:33:29.088Z,25.44
2023-05-15T10:35:29.193Z,25.39
2023-05-15T10:37:29.185Z,25.58
2023-05-15T10:39:29.262Z,26.82
2023-05-15T10:41:29.247Z,25.01
2023-05-15T10:43:29.239Z,25.01
2023-05-15T10:45:29.212Z,26.65
2023-05-15T10:47:29.255Z,24.61
2023-05-15T10:49:29.239Z,24.46
2023-05-15T10:51:29.247Z,24.51
2023-05-15T10:53:29.229Z,24.52
2023-05-15T10:55:29.261Z,24.97
2023-05-15T10:57:29.264Z,25.15
2023-05-15T10:59:29.189Z,25.26
2023-05-15T11:01:29.267Z,25.23
2023-05-15T11:03:34.947Z,25.28
2023-05-15T11:05:29.199Z,25.24
2023-05-15T11:07:29.268Z,25.12
2023-05-15T11:09:29.222Z,25.63
2023-05-15T11:11:29.228Z,26.76
2023-05-15T11:13:29.259Z,25.09
2023-05-15T11:15:29.174Z,25.01
2023-05-15T11:17:29.284Z,24.95
2023-05-15T11:19:29.453Z,24.92
2023-05-15T11:21:29.262Z,26.85
2023-05-15T11:23:29.258Z,25.92
2023-05-15T11:25:29.266Z,26.38
2023-05-15T11:27:29.254Z,24.68
2023-05-15T11:29:29.273Z,24.02
2023-05-15T11:31:29.317Z,23.81
2023-05-15T11:33:29.297Z,24.47
2023-05-15T11:35:29.246Z,24.93
2023-05-15T11:37:29.237Z,26.21
2023-05-15T11:39:29.292Z,24.90
2023-05-15T11:41:29.237Z,24.87
2023-05-15T11:43:29.271Z,24.95
2023-05-15T11:45:29.332Z,24.98
2023-05-15T11:47:29.287Z,26.89
2023-05-15T11:49:29.137Z,24.95
2023-05-15T11:51:29.331Z,24.92
2023-05-15T11:53:29.225Z,24.92
2023-05-15T11:55:29.258Z,25.13
2023-05-15T11:57:29.418Z,25.81
2023-05-15T11:59:29.306Z,26.11
2023-05-15T12:01:29.318Z,24.93
2023-05-15T12:03:29.417Z,24.94
2023-05-15T12:05:29.361Z,24.95
2023-05-15T12:07:29.298Z,24.62
2023-05-15T12:09:29.312Z,24.00
2023-05-15T12:11:29.332Z,23.88
2023-05-15T12:13:29.226Z,23.85
2023-05-15T12:15:29.269Z,23.77
2023-05-15T12:17:29.380Z,24.15
2023-05-15T12:19:29.330Z,24.55
2023-05-15T12:21:29.291Z,24.27
2023-05-15T12:23:29.388Z,24.23
2023-05-15T12:25:29.359Z,24.19
2023-05-15T12:27:29.379Z,24.22
2023-05-15T12:29:30.457Z,24.36
2023-05-15T12:31:29.585Z,24.97
2023-05-15T12:33:29.280Z,25.58
2023-05-15T12:35:29.362Z,26.73
2023-05-15T12:37:29.370Z,24.93
2023-05-15T12:39:29.393Z,24.97
2023-05-15T12:41:29.362Z,24.98
2023-05-15T12:43:29.386Z,24.92
2023-05-15T12:45:29.299Z,26.87
2023-05-15T12:47:29.337Z,24.95
2023-05-15T12:49:29.200Z,26.82
2023-05-15T12:51:29.372Z,24.93
2023-05-15T12:53:29.378Z,24.53
2023-05-15T12:55:29.382Z,24.16
2023-05-15T12:57:29.359Z,23.57
2023-05-15T12:59:29.340Z,23.88
2023-05-15T13:01:29.419Z,24.12
2023-05-15T13:03:29.432Z,24.20
2023-05-15T13:05:29.342Z,24.09
2023-05-15T13:07:29.331Z,24.12
2023-05-15T13:09:29.348Z,24.16
2023-05-15T13:11:29.410Z,23.76
2023-05-15T13:13:29.304Z,23.86
2023-05-15T13:15:29.384Z,23.76
2023-05-15T13:17:29.345Z,23.80
2023-05-15T13:19:29.380Z,23.81
2023-05-15T13:21:29.359Z,24.11
2023-05-15T13:23:29.347Z,24.50
2023-05-15T13:25:31.284Z,24.80
2023-05-15T13:27:29.420Z,24.98
2023-05-15T13:29:29.377Z,24.40
2023-05-15T13:31:29.512Z,23.83
2023-05-15T13:33:29.389Z,23.66
2023-05-15T13:35:29.439Z,23.73
2023-05-15T13:37:29.344Z,23.72
2023-05-15T13:39:29.407Z,23.73
2023-05-15T13:41:29.411Z,24.82
2023-05-15T13:43:29.443Z,25.43
2023-05-15T13:45:29.382Z,25.63
2023-05-15T13:47:29.397Z,26.32
2023-05-15T13:49:29.440Z,24.95
2023-05-15T13:51:29.570Z,24.95
2023-05-15T13:53:29.450Z,24.95
2023-05-15T13:55:29.510Z,24.95
2023-05-15T13:57:29.408Z,24.93
2023-05-15T13:59:29.321Z,25.05
2023-05-15T14:01:29.590Z,24.99
2023-05-15T14:03:29.570Z,29.99
2023-05-15T14:05:29.394Z,25.09
2023-05-15T14:07:29.354Z,26.14
2023-05-15T14:09:29.448Z,25.49
2023-05-15T14:11:29.482Z,25.11
2023-05-15T14:13:29.378Z,26.70
2023-05-15T14:15:29.358Z,26.65
2023-05-15T14:17:29.479Z,26.85
2023-05-15T14:19:29.490Z,26.75
2023-05-15T14:21:29.503Z,24.83
2023-05-15T14:23:29.446Z,26.83
2023-05-15T14:25:29.320Z,26.88
2023-05-15T14:27:29.524Z,24.95
2023-05-15T14:29:29.472Z,24.95
2023-05-15T14:31:29.507Z,26.60
2023-05-15T14:33:29.454Z,24.95
2023-05-15T14:35:29.487Z,24.87
2023-05-15T14:37:29.491Z,24.95
2023-05-15T14:39:29.433Z,26.82
2023-05-15T14:41:29.484Z,24.98
2023-05-15T14:43:29.561Z,25.23
2023-05-15T14:45:29.458Z,25.25
2023-05-15T14:47:29.445Z,25.08
2023-05-15T14:49:29.444Z,25.15
2023-05-15T14:51:29.473Z,25.15
2023-05-15T14:53:29.459Z,24.37
2023-05-15T14:55:29.491Z,23.94
2023-05-15T14:57:29.476Z,23.50
2023-05-15T14:59:29.531Z,23.48
2023-05-15T15:01:29.477Z,23.50
2023-05-15T15:03:31.066Z,24.02
2023-05-15T15:05:29.504Z,24.29
2023-05-15T15:07:29.407Z,24.66
2023-05-15T15:09:29.454Z,24.95
2023-05-15T15:11:29.542Z,25.17
2023-05-15T15:13:29.389Z,25.23
2023-05-15T15:15:29.529Z,25.40
2023-05-15T15:17:29.487Z,25.42
2023-05-15T15:19:29.657Z,25.59
2023-05-15T15:21:29.564Z,24.86
2023-05-15T15:23:29.559Z,24.63
2023-05-15T15:25:30.869Z,24.38
2023-05-15T15:27:29.481Z,24.12
2023-05-15T15:29:29.406Z,24.08
2023-05-15T15:31:29.698Z,24.20
2023-05-15T15:33:29.573Z,24.51
2023-05-15T15:35:29.596Z,23.62
2023-05-15T15:37:29.511Z,23.54
2023-05-15T15:39:29.579Z,23.43
2023-05-15T15:41:29.461Z,23.44
2023-05-15T15:43:29.525Z,23.40
2023-05-15T15:45:29.582Z,23.91
2023-05-15T15:47:29.629Z,24.10
2023-05-15T15:49:29.397Z,24.16
2023-05-15T15:51:29.505Z,23.73
2023-05-15T15:53:29.521Z,23.57
2023-05-15T15:55:29.590Z,23.61
2023-05-15T15:57:29.549Z,23.62
2023-05-15T15:59:29.485Z,23.70
2023-05-15T16:01:29.675Z,23.88
2023-05-15T16:03:29.605Z,23.98
2023-05-15T16:05:29.435Z,24.04
2023-05-15T16:07:29.578Z,24.10
2023-05-15T16:09:29.595Z,24.12
2023-05-15T16:11:29.589Z,24.27
2023-05-15T16:13:29.642Z,24.21
2023-05-15T16:15:29.583Z,23.56
2023-05-15T16:17:29.651Z,23.34
2023-05-15T16:19:29.611Z,23.27
2023-05-15T16:21:29.531Z,23.26
2023-05-15T16:23:29.468Z,23.20
2023-05-15T16:25:29.603Z,23.57
2023-05-15T16:27:29.613Z,23.81
2023-05-15T16:29:29.576Z,24.02
2023-05-15T16:31:29.620Z,24.05
2023-05-15T16:33:29.590Z,24.15
2023-05-15T16:35:29.569Z,24.10
2023-05-15T16:37:29.619Z,24.23
2023-05-15T16:39:29.608Z,24.12
2023-05-15T16:41:29.597Z,24.14
2023-05-15T16:43:29.559Z,23.69
2023-05-15T16:45:29.527Z,23.45
2023-05-15T16:47:29.681Z,23.49
2023-05-15T16:49:29.701Z,23.52
2023-05-15T16:51:29.616Z,23.50
2023-05-15T16:53:29.723Z,23.65
2023-05-15T16:55:29.542Z,23.77
2023-05-15T16:57:29.582Z,23.23
2023-05-15T16:59:29.580Z,23.11
2023-05-15T17:01:29.711Z,23.15
2023-05-15T17:03:29.618Z,23.16
2023-05-15T17:05:29.624Z,23.10
2023-05-15T17:07:29.616Z,23.49
2023-05-15T17:09:29.555Z,23.70
2023-05-15T17:11:29.813Z,23.66
2023-05-15T17:13:29.659Z,23.68
2023-05-15T17:15:29.633Z,23.81
2023-05-15T17:17:29.724Z,23.47
2023-05-15T17:19:29.594Z,23.77
2023-05-15T17:21:29.620Z,23.73
2023-05-15T17:23:29.682Z,23.65
2023-05-15T17:25:29.614Z,23.68
2023-05-15T17:27:29.782Z,23.67
2023-05-15T17:29:29.600Z,23.53
2023-05-15T17:31:29.770Z,23.63
2023-05-15T17:33:29.658Z,23.53
2023-05-15T17:35:31.410Z,23.17
2023-05-15T17:37:29.580Z,23.17
2023-05-15T17:39:29.601Z,22.87
2023-05-15T17:41:29.588Z,22.78
2023-05-15T17:43:29.704Z,22.78
2023-05-15T17:45:29.774Z,22.85
2023-05-15T17:47:29.606Z,22.82
2023-05-15T17:49:29.708Z,23.27
2023-05-15T17:51:29.640Z,23.33
2023-05-15T17:53:29.713Z,23.39
2023-05-15T17:55:29.609Z,23.40
2023-05-15T17:57:29.723Z,23.38
2023-05-15T17:59:29.662Z,23.38
2023-05-15T18:01:29.713Z,23.53
2023-05-15T18:03:29.749Z,23.58
2023-05-15T18:05:29.797Z,23.62
2023-05-15T18:07:29.729Z,23.65
2023-05-15T18:09:29.696Z,23.70
2023-05-15T18:11:29.670Z,23.66
2023-05-15T18:13:29.715Z,23.65
2023-05-15T18:15:29.637Z,23.68
2023-05-15T18:17:29.743Z,23.67
2023-05-15T18:19:29.611Z,23.69
2023-05-15T18:21:29.775Z,23.70
2023-05-15T18:23:29.602Z,23.69
2023-05-15T18:25:29.764Z,23.73
2023-05-15T18:27:29.713Z,23.68
2023-05-15T18:29:29.765Z,23.68
2023-05-15T18:31:29.917Z,23.68
2023-05-15T18:33:29.685Z,23.62
2023-05-15T18:35:29.668Z,23.70
2023-05-15T18:37:29.658Z,23.63
2023-05-15T18:39:29.744Z,23.64
2023-05-15T18:41:29.736Z,23.72
2023-05-15T18:43:29.741Z,23.65
2023-05-15T18:45:29.694Z,23.63
2023-05-15T18:47:29.738Z,23.66
2023-05-15T18:49:29.670Z,23.57
2023-05-15T18:51:29.769Z,23.61
2023-05-15T18:53:29.774Z,23.59
2023-05-15T18:55:29.687Z,23.54
2023-05-15T18:57:29.904Z,23.55
2023-05-15T18:59:29.760Z,23.53
2023-05-15T19:01:29.813Z,23.59
2023-05-15T19:03:29.883Z,23.54
2023-05-15T19:05:29.778Z,23.58
2023-05-15T19:07:29.709Z,23.68
2023-05-15T19:09:29.859Z,23.63
2023-05-15T19:11:29.793Z,23.55
2023-05-15T19:13:30.076Z,23.63
2023-05-15T19:15:29.763Z,23.65
2023-05-15T19:17:29.817Z,23.57
2023-05-15T19:19:29.849Z,23.56
2023-05-15T19:21:29.728Z,23.57
2023-05-15T19:23:29.711Z,23.57
2023-05-15T19:25:29.794Z,23.57
2023-05-15T19:27:29.782Z,24.43
2023-05-15T19:29:29.857Z,25.61
2023-05-15T19:31:31.778Z,25.88
2023-05-15T19:33:29.809Z,26.12
2023-05-15T19:35:29.788Z,26.36
2023-05-15T19:37:29.806Z,26.62
2023-05-15T19:39:29.845Z,27.00
2023-05-15T19:41:29.772Z,26.95
2023-05-15T19:43:29.754Z,27.01
2023-05-15T19:45:29.853Z,26.96
2023-05-15T19:47:29.815Z,26.95
2023-05-15T19:49:29.831Z,26.96
2023-05-15T19:51:29.882Z,26.53
2023-05-15T19:53:29.781Z,26.63
2023-05-15T19:55:29.689Z,26.52
2023-05-15T19:57:29.846Z,26.52
2023-05-15T19:59:29.911Z,26.63
2023-05-15T20:01:29.849Z,26.79
2023-05-15T20:03:29.871Z,26.81
2023-05-15T20:05:30.005Z,26.74
2023-05-15T20:07:29.901Z,26.73
2023-05-15T20:09:30.049Z,26.71
2023-05-15T20:11:29.795Z,26.69
2023-05-15T20:13:29.889Z,26.79
2023-05-15T20:15:29.793Z,26.79
2023-05-15T20:17:29.944Z,26.62
2023-05-15T20:19:32.215Z,26.56
2023-05-15T20:21:29.718Z,26.75
2023-05-15T20:23:29.826Z,26.68
2023-05-15T20:25:30.115Z,26.61
2023-05-15T20:27:30.106Z,24.98
2023-05-15T20:29:29.785Z,25.11
2023-05-15T20:31:29.889Z,25.00
2023-05-15T20:33:29.967Z,25.11
2023-05-15T20:35:29.819Z,25.04
2023-05-15T20:37:30.027Z,25.05
2023-05-15T20:39:29.839Z,25.08
2023-05-15T20:41:29.874Z,24.95
2023-05-15T20:43:29.718Z,25.04
2023-05-15T20:45:29.773Z,25.10
2023-05-15T20:47:29.935Z,25.00
2023-05-15T20:49:29.851Z,24.98
2023-05-15T20:51:29.861Z,25.01
2023-05-15T20:53:29.874Z,24.99
2023-05-15T20:55:29.891Z,24.96
2023-05-15T20:57:29.806Z,24.98
2023-05-15T20:59:29.869Z,25.04
2023-05-15T21:01:29.905Z,24.98
2023-05-15T21:03:29.957Z,24.95
2023-05-15T21:05:29.893Z,24.93
2023-05-15T21:07:29.979Z,25.10
2023-05-15T21:09:29.879Z,24.92
2023-05-15T21:11:29.821Z,24.93
2023-05-15T21:13:29.826Z,24.98
2023-05-15T21:15:29.918Z,24.95
2023-05-15T21:17:30.059Z,25.07
2023-05-15T21:19:29.900Z,25.07
2023-05-15T21:21:29.964Z,25.00
2023-05-15T21:23:29.910Z,24.96
2023-05-15T21:25:29.833Z,24.96
2023-05-15T21:27:30.040Z,25.07
2023-05-15T21:29:29.876Z,24.95
2023-05-15T21:31:30.002Z,24.99
2023-05-15T21:33:29.951Z,24.97
2023-05-15T21:35:29.983Z,24.96
2023-05-15T21:37:29.866Z,25.01
2023-05-15T21:39:29.937Z,24.98
2023-05-15T21:41:29.862Z,24.95
2023-05-15T21:43:29.934Z,24.93
2023-05-15T21:45:29.941Z,24.95
2023-05-15T21:47:29.938Z,24.90
2023-05-15T21:49:30.034Z,24.89
2023-05-15T21:51:30.018Z,24.97
2023-05-15T21:53:29.932Z,24.96
2023-05-15T21:55:29.885Z,24.83
2023-05-15T21:57:29.902Z,24.83
2023-05-15T21:59:30.030Z,25.01
2023-05-15T22:01:29.925Z,24.95
2023-05-15T22:03:30.014Z,25.08
2023-05-15T22:05:29.976Z,24.97
2023-05-15T22:07:29.964Z,24.94
2023-05-15T22:09:29.805Z,24.95
2023-05-15T22:11:29.935Z,24.95
2023-05-15T22:13:29.984Z,25.05
2023-05-15T22:15:29.972Z,25.04
2023-05-15T22:17:29.942Z,25.05
2023-05-15T22:19:33.506Z,25.09
2023-05-15T22:21:30.000Z,25.01
2023-05-15T22:23:29.960Z,24.92
2023-05-15T22:25:30.036Z,24.93
2023-05-15T22:27:29.987Z,24.85
2023-05-15T22:29:29.937Z,24.88
2023-05-15T22:31:29.931Z,24.91
2023-05-15T22:33:29.989Z,24.97
2023-05-15T22:35:30.013Z,24.90
2023-05-15T22:37:29.859Z,24.90
2023-05-15T22:39:29.931Z,24.87
2023-05-15T22:41:29.997Z,24.82
2023-05-15T22:43:30.004Z,24.83
2023-05-15T22:45:30.015Z,24.95
2023-05-15T22:47:30.029Z,24.83
2023-05-15T22:49:29.969Z,24.95
2023-05-15T22:51:30.010Z,24.97
2023-05-15T22:53:29.949Z,24.85
2023-05-15T22:55:29.997Z,24.90
2023-05-15T22:57:30.025Z,24.95
2023-05-15T22:59:30.029Z,25.01
2023-05-15T23:01:30.074Z,24.95
2023-05-15T23:03:30.022Z,24.98
2023-05-15T23:05:30.038Z,24.89
2023-05-15T23:07:29.982Z,24.89
2023-05-15T23:09:29.981Z,24.92
2023-05-15T23:11:30.075Z,24.97
2023-05-15T23:13:29.869Z,24.95
2023-05-15T23:15:30.019Z,24.95
2023-05-15T23:17:30.064Z,24.91
2023-05-15T23:19:29.930Z,24.95
2023-05-15T23:21:29.960Z,25.04
2023-05-15T23:23:29.892Z,25.10
2023-05-15T23:25:30.085Z,24.90
2023-05-15T23:27:29.986Z,24.93
2023-05-15T23:29:29.952Z,24.96
2023-05-15T23:31:29.970Z,24.83
2023-05-15T23:33:30.059Z,24.86
2023-05-15T23:35:30.056Z,24.90
2023-05-15T23:37:30.057Z,24.90
2023-05-15T23:39:30.054Z,25.00
2023-05-15T23:41:30.043Z,24.94
2023-05-15T23:43:30.066Z,24.93
2023-05-15T23:45:29.991Z,25.01
2023-05-15T23:47:29.977Z,24.94
2023-05-15T23:49:30.006Z,25.04
2023-05-15T23:51:29.996Z,25.13
2023-05-15T23:53:30.081Z,25.06
2023-05-15T23:55:29.964Z,25.04
2023-05-15T23:57:30.077Z,24.94
2023-05-15T23:59:29.985Z,24.94
